Time;durP1;ratioP1;P1;durP2;ratioP2;P2;SDS_P1;SDS_P2;PMS_P1;PMS_P2;Temp;Humidity;BMP_temperature;BMP_pressure;BME280_temperature;BME280_humidity;BME280_pressure;Samples;Min_cycle;Max_cycle;Signal;HPM_P1;HPM_P2
2022/08/22 00:00:13;;;;;;;4.35;2.17;;;;;;;15.35;58.59;97183.97;5045452;28;20289;-61
2022/08/22 00:03:14;;;;;;;6.30;2.30;;;;;;;15.32;58.99;97190.81;5045945;28;20090;-60
2022/08/22 00:06:16;;;;;;;5.13;2.45;;;;;;;15.29;58.72;97185.13;5044638;28;20056;-61
2022/08/22 00:08:51;;;;;;;5.15;2.33;;;;;;;15.25;58.91;97184.88;5045666;28;20049;-61
2022/08/22 00:11:34;;;;;;;6.57;2.30;;;;;;;15.17;59.34;97186.31;5045137;28;20041;-61
2022/08/22 00:14:42;;;;;;;5.03;2.10;;;;;;;15.18;59.46;97176.22;5045926;28;20052;-60
2022/08/22 00:17:19;;;;;;;7.05;2.67;;;;;;;15.04;60.17;97187.78;5021870;28;20045;-61
2022/08/22 00:20:08;;;;;;;7.30;2.97;;;;;;;15.08;59.93;97182.59;5048939;28;20121;-61
2022/08/22 00:22:46;;;;;;;7.53;2.30;;;;;;;14.98;60.30;97180.75;5025364;28;20060;-61
2022/08/22 00:25:43;;;;;;;6.28;2.30;;;;;;;14.88;61.11;97178.09;5028453;28;20660;-61
2022/08/22 00:28:24;;;;;;;4.30;2.28;;;;;;;14.92;60.74;97174.53;5045440;28;20531;-61
2022/08/22 00:31:07;;;;;;;7.15;2.45;;;;;;;15.04;60.56;97163.25;5044764;28;20045;-61
2022/08/22 00:33:47;;;;;;;6.10;2.40;;;;;;;15.12;60.29;97171.91;5059211;28;20033;-61
2022/08/22 00:36:29;;;;;;;5.40;2.15;;;;;;;15.21;60.04;97171.03;5045924;28;20047;-60
2022/08/22 00:39:17;;;;;;;;;;;;;;;15.33;59.69;97180.72;5045836;28;20045;-61
2022/08/22 00:41:59;;;;;;;7.00;2.75;;;;;;;15.31;59.75;97169.28;5045102;28;19966;-61
2022/08/22 00:44:38;;;;;;;;;;;;;;;15.13;60.11;97171.63;5045396;28;20179;-61
2022/08/22 00:47:23;;;;;;;6.22;2.42;;;;;;;15.17;60.22;97180.06;5036445;28;19921;-61
2022/08/22 00:49:55;;;;;;;4.38;2.20;;;;;;;15.01;60.85;97172.03;5044822;28;20044;-61
2022/08/22 00:52:51;;;;;;;4.55;2.40;;;;;;;15.00;61.10;97175.03;5044332;28;20037;-61
2022/08/22 00:55:52;;;;;;;6.43;2.22;;;;;;;14.92;61.37;97163.63;5054366;28;20052;-61
2022/08/22 00:58:26;;;;;;;6.05;2.25;;;;;;;14.95;61.05;97168.53;5065727;28;20055;-61
2022/08/22 01:00:58;;;;;;;5.45;2.38;;;;;;;14.91;61.54;97167.47;5040784;28;20424;-60
2022/08/22 01:03:43;;;;;;;4.95;2.58;;;;;;;14.96;60.99;97161.13;5039337;28;20041;-61
2022/08/22 01:06:22;;;;;;;7.05;2.75;;;;;;;14.90;61.42;97170.47;5042639;28;20036;-61
2022/08/22 01:09:27;;;;;;;7.35;2.53;;;;;;;14.88;61.54;97170.75;5041905;28;20048;-62
2022/08/22 01:11:53;;;;;;;5.97;2.83;;;;;;;14.82;61.63;97172.69;5045120;28;20416;-61
2022/08/22 01:14:43;;;;;;;7.95;2.40;;;;;;;14.75;62.35;97165.94;5051421;28;20044;-61
2022/08/22 01:17:25;;;;;;;4.50;2.38;;;;;;;14.65;62.67;97169.53;5038576;28;20033;-60
2022/08/22 01:20:24;;;;;;;5.28;2.35;;;;;;;14.73;62.26;97168.94;5032747;28;20041;-61
2022/08/22 01:23:18;;;;;;;5.75;2.65;;;;;;;14.86;61.53;97167.50;5040349;28;20049;-61
2022/08/22 01:26:22;;;;;;;6.28;2.45;;;;;;;14.90;60.99;97168.56;5044708;28;20075;-61
2022/08/22 01:29:13;;;;;;;5.85;2.67;;;;;;;14.92;61.39;97162.81;5044882;28;20055;-61
2022/08/22 01:32:35;;;;;;;5.55;2.60;;;;;;;15.07;60.62;97164.59;5048687;28;20538;-61
2022/08/22 01:35:24;;;;;;;5.63;2.33;;;;;;;15.12;60.49;97161.84;5048333;28;20091;-61
2022/08/22 01:38:14;;;;;;;7.10;2.40;;;;;;;14.97;61.27;97164.69;5036714;28;20061;-60
2022/08/22 01:40:59;;;;;;;5.80;2.83;;;;;;;14.57;63.25;97171.75;5048416;28;20052;-61
2022/08/22 01:43:43;;;;;;;4.70;2.45;;;;;;;14.43;63.74;97163.44;5046973;28;20041;-61
2022/08/22 01:46:35;;;;;;;6.57;2.53;;;;;;;14.39;63.73;97158.81;5061665;28;20134;-61
2022/08/22 01:49:22;;;;;;;5.25;2.50;;;;;;;14.40;63.97;97161.25;5048631;28;20045;-61
2022/08/22 01:51:53;;;;;;;4.65;2.22;;;;;;;14.44;63.44;97159.59;5027889;28;20048;-61
2022/08/22 01:54:26;;;;;;;6.88;3.10;;;;;;;14.59;62.41;97159.78;5030104;28;20217;-61
2022/08/22 01:57:00;;;;;;;6.00;2.85;;;;;;;14.66;62.15;97166.53;5048394;28;20041;-61
2022/08/22 01:59:52;;;;;;;5.45;2.58;;;;;;;14.73;61.88;97163.47;5044783;28;20029;-61
2022/08/22 02:02:35;;;;;;;5.13;2.13;;;;;;;14.68;62.44;97166.25;5044920;28;20060;-61
2022/08/22 02:05:11;;;;;;;5.72;2.75;;;;;;;14.70;62.36;97158.59;5047564;28;20037;-61
2022/08/22 02:07:56;;;;;;;5.60;2.60;;;;;;;14.92;61.61;97165.53;5047545;28;20041;-61
2022/08/22 02:10:40;;;;;;;4.57;2.47;;;;;;;14.93;61.31;97157.06;5050222;28;20534;-61
2022/08/22 02:13:23;;;;;;;5.53;2.53;;;;;;;14.97;61.03;97151.88;5067702;28;20056;-61
2022/08/22 02:16:05;;;;;;;5.40;2.60;;;;;;;15.04;61.02;97154.28;5052217;28;20523;-61
2022/08/22 02:18:49;;;;;;;6.90;2.58;;;;;;;15.04;60.67;97148.81;5063189;28;20055;-61
2022/08/22 02:21:25;;;;;;;6.05;3.05;;;;;;;14.95;61.15;97156.78;5047520;28;20119;-61
2022/08/22 02:24:18;;;;;;;4.78;2.55;;;;;;;14.87;61.43;97158.22;5046908;28;20079;-61
2022/08/22 02:27:07;;;;;;;5.82;2.85;;;;;;;14.89;61.52;97161.47;5046000;28;20049;-61
2022/08/22 02:29:56;;;;;;;4.57;2.50;;;;;;;14.92;61.34;97158.19;5045944;28;20500;-60
2022/08/22 02:32:45;;;;;;;5.43;2.50;;;;;;;14.82;61.59;97161.00;5046701;28;20041;-61
2022/08/22 02:35:11;;;;;;;5.60;2.35;;;;;;;14.82;61.39;97158.28;5053469;28;20028;-61
2022/08/22 02:37:52;;;;;;;6.30;2.53;;;;;;;14.44;64.61;97161.50;5058192;28;20094;-61
2022/08/22 02:40:26;;;;;;;5.30;2.63;;;;;;;14.23;65.64;97160.81;5046861;28;20530;-61
2022/08/22 02:43:28;;;;;;;4.93;2.95;;;;;;;13.83;67.07;97149.84;5056688;28;20114;-61
2022/08/22 02:46:21;;;;;;;4.87;2.40;;;;;;;13.87;66.67;97149.03;5059186;28;20473;-61
2022/08/22 02:49:02;;;;;;;5.18;2.67;;;;;;;13.93;66.28;97157.97;5048892;28;20174;-57
2022/08/22 02:52:09;;;;;;;7.22;2.92;;;;;;;14.13;65.27;97153.53;5047395;28;20100;-61
2022/08/22 02:54:52;;;;;;;4.57;2.55;;;;;;;13.77;67.07;97157.22;5047183;28;20037;-61
2022/08/22 02:57:39;;;;;;;8.50;3.70;;;;;;;13.50;68.56;97155.69;5046586;28;20040;-61
2022/08/22 03:00:20;;;;;;;4.28;2.67;;;;;;;13.29;69.46;97157.59;5047172;28;20382;-61
2022/08/22 03:02:58;;;;;;;5.90;2.72;;;;;;;13.16;70.14;97150.81;5047040;28;20051;-61
2022/08/22 03:05:44;;;;;;;6.38;2.78;;;;;;;13.11;70.34;97151.63;5046717;28;20040;-62
2022/08/22 03:08:27;;;;;;;6.30;2.85;;;;;;;13.07;70.64;97148.66;5046273;28;20091;-61
2022/08/22 03:11:06;;;;;;;6.97;2.83;;;;;;;13.12;70.54;97148.66;5046654;28;20090;-61
2022/08/22 03:13:45;;;;;;;5.10;2.50;;;;;;;13.10;70.50;97145.41;5046508;28;20116;-61
2022/08/22 03:16:25;;;;;;;6.35;2.95;;;;;;;13.09;70.44;97151.91;5059958;28;20037;-61
2022/08/22 03:19:04;;;;;;;6.10;2.70;;;;;;;13.08;70.21;97150.28;5048257;28;20092;-61
2022/08/22 03:21:42;;;;;;;5.55;3.28;;;;;;;13.10;70.16;97150.03;5046264;28;20107;-61
2022/08/22 03:24:44;;;;;;;4.18;2.40;;;;;;;13.03;70.57;97147.59;5046414;28;20048;-61
2022/08/22 03:27:16;;;;;;;;;;;;;;;12.96;70.86;97147.03;5044975;28;20061;-61
2022/08/22 03:30:10;;;;;;;6.03;3.28;;;;;;;12.90;70.88;97143.50;5046537;28;20346;-61
2022/08/22 03:32:54;;;;;;;6.50;2.95;;;;;;;12.94;70.61;97143.78;5045773;28;20056;-60
2022/08/22 03:35:25;;;;;;;5.45;2.65;;;;;;;12.82;71.46;97147.59;5046706;28;20044;-61
2022/08/22 03:38:07;;;;;;;6.25;3.72;;;;;;;12.81;71.02;97148.69;5045302;28;20045;-61
2022/08/22 03:41:00;;;;;;;7.72;3.75;;;;;;;12.69;71.82;97145.41;5045893;28;20396;-60
2022/08/22 03:43:42;;;;;;;6.10;3.38;;;;;;;12.65;71.95;97138.91;5026527;28;20048;-61
2022/08/22 03:46:11;;;;;;;9.68;2.92;;;;;;;12.67;72.31;97140.25;5050817;28;20045;-61
2022/08/22 03:49:10;;;;;;;6.97;2.78;;;;;;;12.63;72.41;97146.53;5046392;28;20056;-61
2022/08/22 03:52:04;;;;;;;6.63;2.70;;;;;;;12.55;72.65;97147.84;5057072;28;20060;-61
2022/08/22 03:55:13;;;;;;;5.00;2.50;;;;;;;12.55;72.43;97143.25;5055545;28;20102;-61
2022/08/22 03:57:54;;;;;;;4.95;2.83;;;;;;;12.60;71.98;97150.56;5043986;28;20053;-61
2022/08/22 04:00:27;;;;;;;;;;;;;;;12.58;71.73;97152.75;5046727;28;20048;-61
2022/08/22 04:03:08;;;;;;;5.25;2.78;;;;;;;12.56;71.85;97155.72;5045829;28;19928;-61
2022/08/22 04:05:53;;;;;;;8.57;3.38;;;;;;;12.53;71.81;97155.47;5060380;28;20044;-61
2022/08/22 04:08:32;;;;;;;7.32;3.03;;;;;;;12.41;72.42;97163.84;5049939;28;20089;-61
2022/08/22 04:11:15;;;;;;;7.38;2.80;;;;;;;12.34;72.82;97164.09;5061893;28;20075;-61
2022/08/22 04:13:45;;;;;;;;;;;;;;;12.29;73.12;97162.22;5062484;28;20037;-61
2022/08/22 04:16:36;;;;;;;6.05;3.13;;;;;;;12.25;73.08;97171.97;5051861;28;19924;-61
2022/08/22 04:19:40;;;;;;;7.72;3.30;;;;;;;12.27;73.26;97175.22;5037574;28;20041;-61
2022/08/22 04:22:29;;;;;;;11.85;3.67;;;;;;;12.27;73.36;97177.94;5035363;28;20041;-61
2022/08/22 04:25:06;;;;;;;9.88;3.72;;;;;;;12.27;72.96;97172.50;5039943;28;20038;-61
2022/08/22 04:27:39;;;;;;;6.05;4.10;;;;;;;12.30;73.12;97168.44;5042420;28;20107;-61
2022/08/22 04:30:06;;;;;;;5.70;3.25;;;;;;;12.25;73.11;97171.16;5045104;28;20068;-61
2022/08/22 04:32:50;;;;;;;4.65;3.10;;;;;;;12.24;73.29;97167.66;5033384;28;20147;-61
2022/08/22 04:35:37;;;;;;;4.97;2.78;;;;;;;12.26;73.01;97172.78;5041072;28;20041;-61
2022/08/22 04:38:20;;;;;;;5.72;2.85;;;;;;;12.27;73.03;97169.00;5043888;28;20056;-61
2022/08/22 04:40:55;;;;;;;6.55;3.13;;;;;;;12.24;73.09;97173.06;5042818;28;20428;-60
2022/08/22 04:43:47;;;;;;;7.97;3.65;;;;;;;12.25;73.32;97180.13;5043365;28;20049;-61
2022/08/22 04:46:48;;;;;;;6.30;3.20;;;;;;;12.21;73.35;97170.88;5054840;28;20098;-61
2022/08/22 04:49:26;;;;;;;6.13;3.47;;;;;;;12.29;73.61;97169.53;5042307;28;20504;-61
2022/08/22 04:51:59;;;;;;;5.97;2.92;;;;;;;12.12;73.64;97173.28;5041493;28;20051;-61
2022/08/22 04:54:39;;;;;;;5.88;3.58;;;;;;;12.12;74.16;97169.78;5041910;28;20049;-61
2022/08/22 04:57:28;;;;;;;6.40;2.95;;;;;;;12.12;74.02;97172.50;5036176;28;20037;-61
2022/08/22 05:00:02;;;;;;;8.52;3.40;;;;;;;12.16;73.96;97170.88;5042810;28;20049;-60
2022/08/22 05:02:29;;;;;;;5.40;2.92;;;;;;;12.23;73.43;97166.00;5047409;28;20504;-61
2022/08/22 05:05:04;;;;;;;7.82;3.60;;;;;;;12.31;73.30;97178.25;5045164;28;20037;-61
2022/08/22 05:07:47;;;;;;;7.63;4.13;;;;;;;12.37;72.80;97179.88;5040043;28;20613;-62
2022/08/22 05:10:21;;;;;;;5.70;2.90;;;;;;;12.36;72.85;97178.25;5037502;28;20044;-63
2022/08/22 05:12:59;;;;;;;7.18;3.20;;;;;;;12.45;72.77;97175.81;5035106;28;20045;-63
2022/08/22 05:15:32;;;;;;;6.10;3.40;;;;;;;12.42;73.08;97174.44;5040230;28;20379;-63
2022/08/22 05:18:08;;;;;;;5.70;2.92;;;;;;;12.43;73.07;97183.41;5045295;28;20099;-60
2022/08/22 05:20:38;;;;;;;5.57;3.30;;;;;;;12.49;72.92;97185.88;5046209;28;20047;-61
2022/08/22 05:23:29;;;;;;;7.25;3.10;;;;;;;12.57;72.78;97183.72;5045235;28;20470;-62
2022/08/22 05:26:01;;;;;;;5.13;2.80;;;;;;;12.66;72.23;97187.53;5044767;28;20045;-62
2022/08/22 05:28:33;;;;;;;6.10;3.20;;;;;;;12.74;71.99;97188.88;5034989;28;20068;-61
2022/08/22 05:31:23;;;;;;;6.57;2.72;;;;;;;12.86;71.67;97185.88;5050124;28;20110;-62
2022/08/22 05:33:54;;;;;;;6.22;2.95;;;;;;;12.93;71.48;97189.16;5043011;28;20393;-63
2022/08/22 05:36:27;;;;;;;7.80;2.97;;;;;;;13.03;71.10;97192.97;5044223;28;20041;-61
2022/08/22 05:39:12;;;;;;;7.35;2.95;;;;;;;13.10;71.11;97196.22;5041925;28;20134;-61
2022/08/22 05:41:40;;;;;;;4.30;2.85;;;;;;;13.17;70.48;97194.06;5035603;28;20049;-62
2022/08/22 05:44:25;;;;;;;5.68;3.38;;;;;;;13.33;70.21;97191.28;5042668;28;20376;-61
2022/08/22 05:47:00;;;;;;;6.68;2.78;;;;;;;13.51;69.47;97185.31;5053957;28;20508;-61
2022/08/22 05:49:43;;;;;;;7.90;3.47;;;;;;;13.62;69.93;97188.00;5045480;28;20255;-61
2022/08/22 05:52:37;;;;;;;5.28;3.13;;;;;;;13.81;69.18;97193.66;5050698;28;20045;-62
2022/08/22 05:55:14;;;;;;;6.10;2.90;;;;;;;13.99;68.83;97191.41;5044259;28;20097;-61
2022/08/22 05:57:51;;;;;;;10.38;2.88;;;;;;;14.13;68.26;97195.19;5056500;28;20054;-63
2022/08/22 06:00:22;;;;;;;5.60;2.50;;;;;;;14.30;67.59;97185.84;5048118;28;20044;-62
2022/08/22 06:03:06;;;;;;;5.05;2.42;;;;;;;14.43;67.07;97195.28;5046423;28;20037;-63
2022/08/22 06:05:39;;;;;;;5.47;2.70;;;;;;;14.55;66.26;97184.03;5044258;28;20060;-63
2022/08/22 06:08:35;;;;;;;5.32;2.72;;;;;;;14.70;65.48;97183.13;5043051;28;20210;-62
2022/08/22 06:11:10;;;;;;;4.55;2.60;;;;;;;14.85;65.38;97184.94;5037037;28;20106;-63
2022/08/22 06:13:44;;;;;;;7.43;2.55;;;;;;;15.04;65.05;97178.81;5041412;28;20059;-62
2022/08/22 06:16:41;;;;;;;4.60;2.38;;;;;;;15.22;64.55;97185.44;5042307;28;20119;-63
2022/08/22 06:19:16;;;;;;;6.10;2.72;;;;;;;15.38;64.25;97188.03;5040208;28;20045;-62
2022/08/22 06:21:49;;;;;;;5.18;2.33;;;;;;;15.56;64.00;97191.97;5039737;28;20053;-59
2022/08/22 06:24:23;;;;;;;4.82;2.58;;;;;;;15.68;64.14;97186.91;5048674;28;20036;-62
2022/08/22 06:26:53;;;;;;;4.50;2.60;;;;;;;15.79;63.68;97179.44;5050359;28;20048;-63
2022/08/22 06:29:35;;;;;;;13.32;3.00;;;;;;;15.95;63.69;97192.91;5039148;28;20045;-62
2022/08/22 06:32:11;;;;;;;6.38;2.47;;;;;;;16.13;63.18;97188.59;5046205;28;20053;-61
2022/08/22 06:34:41;;;;;;;6.35;2.83;;;;;;;16.31;62.61;97197.09;5047861;28;20041;-61
2022/08/22 06:37:16;;;;;;;5.68;2.63;;;;;;;16.46;61.56;97194.16;5054752;28;20083;-62
2022/08/22 06:39:48;;;;;;;8.98;2.88;;;;;;;16.61;61.45;97193.13;5052166;28;20053;-61
2022/08/22 06:42:23;;;;;;;6.90;2.65;;;;;;;16.76;60.63;97194.00;5048521;28;20448;-61
2022/08/22 06:44:56;;;;;;;6.13;3.03;;;;;;;16.91;60.41;97198.41;5066409;28;20041;-62
2022/08/22 06:47:40;;;;;;;4.55;2.47;;;;;;;17.01;59.92;97197.44;5067105;28;20436;-62
2022/08/22 06:50:13;;;;;;;5.70;2.40;;;;;;;17.12;59.05;97192.66;5047072;28;20048;-63
2022/08/22 06:53:03;;;;;;;5.28;2.50;;;;;;;17.27;59.23;97199.78;5047470;28;20041;-61
2022/08/22 06:55:30;;;;;;;5.75;2.80;;;;;;;17.45;57.50;97206.31;5061848;28;20047;-61
2022/08/22 06:58:05;;;;;;;7.28;2.80;;;;;;;17.61;55.82;97211.53;5067004;28;20492;-63
2022/08/22 07:00:34;;;;;;;8.82;2.20;;;;;;;17.84;55.40;97206.16;5066393;28;20059;-62
2022/08/22 07:03:14;;;;;;;8.40;2.90;;;;;;;18.04;54.03;97204.94;5066774;28;20385;-62
2022/08/22 07:05:41;;;;;;;5.55;2.92;;;;;;;18.38;52.16;97202.88;5051105;28;20099;-60
2022/08/22 07:08:20;;;;;;;6.00;2.65;;;;;;;18.68;52.47;97208.78;5044732;28;20470;-62
2022/08/22 07:10:57;;;;;;;6.30;3.30;;;;;;;19.00;51.75;97206.97;5044503;28;20052;-62
2022/08/22 07:13:27;;;;;;;8.25;2.80;;;;;;;19.17;51.37;97211.00;5033423;28;20526;-63
2022/08/22 07:16:00;;;;;;;5.40;2.40;;;;;;;19.27;50.54;97207.19;5053777;28;20036;-63
2022/08/22 07:18:28;;;;;;;5.97;2.30;;;;;;;19.46;50.49;97204.22;5044831;28;20059;-62
2022/08/22 07:21:03;;;;;;;7.20;3.60;;;;;;;19.58;49.81;97209.13;5046209;28;20072;-61
2022/08/22 07:23:44;;;;;;;9.73;3.97;;;;;;;19.72;49.62;97209.84;5050643;28;20036;-64
2022/08/22 07:26:20;;;;;;;;;;;;;;;19.79;49.19;97205.84;5057156;28;20087;-62
2022/08/22 07:29:17;;;;;;;14.20;3.05;;;;;;;19.82;48.73;97210.69;5047213;28;19924;-62
2022/08/22 07:32:08;;;;;;;7.63;3.22;;;;;;;19.90;48.70;97198.91;5060636;28;20401;-62
2022/08/22 07:35:03;;;;;;;13.15;3.80;;;;;;;20.03;48.38;97208.22;5057898;28;20547;-61
2022/08/22 07:37:36;;;;;;;15.02;3.67;;;;;;;20.13;48.08;97210.66;5049463;28;20041;-61
2022/08/22 07:40:20;;;;;;;12.77;3.55;;;;;;;20.17;47.86;97210.84;5044196;28;20045;-61
2022/08/22 07:42:55;;;;;;;11.00;3.17;;;;;;;20.23;47.42;97206.00;5047079;28;20453;-62
2022/08/22 07:45:34;;;;;;;9.65;4.53;;;;;;;20.30;47.24;97214.56;5045505;28;20044;-63
2022/08/22 07:48:15;;;;;;;6.85;2.92;;;;;;;20.44;47.24;97216.38;5038735;28;20063;-59
2022/08/22 07:51:08;;;;;;;5.90;2.83;;;;;;;20.54;47.57;97213.34;5043831;28;20060;-62
2022/08/22 07:53:58;;;;;;;7.22;3.03;;;;;;;20.62;47.35;97218.03;5055113;28;20396;-62
2022/08/22 07:56:31;;;;;;;7.43;2.60;;;;;;;20.67;47.10;97214.31;5043236;28;20665;-62
2022/08/22 07:59:06;;;;;;;7.25;2.55;;;;;;;20.68;46.44;97215.94;5052541;28;20072;-62
2022/08/22 08:01:44;;;;;;;8.85;2.65;;;;;;;20.82;46.01;97218.53;5043526;28;20456;-62
2022/08/22 08:04:16;;;;;;;8.45;3.13;;;;;;;20.86;46.04;97227.75;5046986;28;20048;-63
2022/08/22 08:06:45;;;;;;;;;;;;;;;20.83;46.36;97222.91;5040185;28;20515;-62
2022/08/22 08:09:14;;;;;;;12.32;2.67;;;;;;;20.96;46.90;97214.84;5037652;28;19925;-62
2022/08/22 08:11:43;;;;;;;6.82;2.75;;;;;;;21.12;45.73;97215.94;5040303;28;20053;-62
2022/08/22 08:14:13;;;;;;;8.82;3.03;;;;;;;21.15;45.52;97218.06;5036480;28;20117;-62
2022/08/22 08:16:59;;;;;;;7.13;2.53;;;;;;;21.16;45.94;97224.38;5035606;28;20041;-62
2022/08/22 08:19:29;;;;;;;9.93;3.83;;;;;;;21.13;45.67;97216.75;5037026;28;20080;-62
2022/08/22 08:21:58;;;;;;;7.18;2.72;;;;;;;21.29;45.73;97222.56;5037321;28;20132;-62
2022/08/22 08:24:29;;;;;;;8.05;2.70;;;;;;;21.48;45.41;97218.66;5040082;28;20040;-63
2022/08/22 08:30:13;;;;;;;7.07;2.53;;;;;;;21.60;44.31;97218.78;5037567;28;20045;-64
2022/08/22 08:32:47;;;;;;;5.80;2.65;;;;;;;21.65;44.16;97232.38;5035131;28;20053;-62
2022/08/22 08:35:27;;;;;;;5.70;2.38;;;;;;;21.75;44.33;97231.25;5035090;28;20044;-63
2022/08/22 08:38:06;;;;;;;5.50;2.67;;;;;;;21.75;44.43;97227.69;5045949;28;20078;-63
2022/08/22 08:40:33;;;;;;;7.80;3.35;;;;;;;21.87;44.79;97225.03;5041596;28;20045;-63
2022/08/22 08:43:35;;;;;;;6.32;3.33;;;;;;;21.92;44.68;97218.53;5051583;28;20482;-62
2022/08/22 08:46:35;;;;;;;9.63;3.25;;;;;;;22.12;44.61;97217.00;5051531;28;20049;-62
2022/08/22 08:49:28;;;;;;;11.57;3.00;;;;;;;22.22;44.26;97221.28;5058161;28;20040;-62
2022/08/22 08:52:09;;;;;;;8.90;3.10;;;;;;;22.34;44.52;97221.38;5042189;28;20221;-62
2022/08/22 08:54:54;;;;;;;9.07;2.97;;;;;;;22.40;44.60;97218.47;5056889;28;20044;-62
2022/08/22 08:57:29;;;;;;;6.72;2.50;;;;;;;22.47;43.86;97218.72;5038822;28;20041;-65
2022/08/22 09:00:13;;;;;;;7.20;2.80;;;;;;;22.62;43.98;97205.53;5042116;28;20044;-65
2022/08/22 09:03:10;;;;;;;8.20;2.95;;;;;;;22.67;43.54;97211.63;5042557;28;20049;-65
2022/08/22 09:05:53;;;;;;;5.50;3.10;;;;;;;22.67;44.04;97214.38;5035738;28;20197;-65
2022/08/22 09:08:34;;;;;;;10.27;3.60;;;;;;;22.72;43.99;97208.69;5038641;28;20052;-64
2022/08/22 09:11:39;;;;;;;7.90;3.92;;;;;;;22.84;44.25;97218.16;5037304;28;20049;-65
2022/08/22 09:14:28;;;;;;;10.60;3.13;;;;;;;22.93;43.06;97209.81;5039363;28;20040;-65
2022/08/22 09:17:13;;;;;;;6.65;2.67;;;;;;;22.94;43.14;97212.25;5044820;28;20118;-65
2022/08/22 09:19:51;;;;;;;6.22;2.67;;;;;;;23.02;42.92;97209.72;5035279;28;20068;-65
2022/08/22 09:22:31;;;;;;;6.28;3.17;;;;;;;23.08;42.46;97209.22;5038142;28;20132;-65
2022/08/22 09:25:32;;;;;;;4.88;2.70;;;;;;;23.15;42.08;97210.59;5036496;28;20449;-65
2022/08/22 09:28:05;;;;;;;9.55;2.95;;;;;;;23.25;41.92;97212.94;5037597;28;20404;-65
2022/08/22 09:30:49;;;;;;;8.85;2.55;;;;;;;23.31;41.26;97219.03;5042527;28;20040;-65
2022/08/22 09:33:23;;;;;;;6.25;2.72;;;;;;;23.22;40.96;97213.63;5043683;28;20045;-64
2022/08/22 09:36:09;;;;;;;7.40;2.88;;;;;;;23.30;40.55;97222.97;5044862;28;20029;-64
2022/08/22 09:38:50;;;;;;;7.75;2.90;;;;;;;23.29;40.41;97218.59;5035484;28;20049;-65
2022/08/22 09:41:44;;;;;;;13.00;3.00;;;;;;;23.42;41.02;97220.28;5041032;28;20508;-65
2022/08/22 09:45:18;;;;;;;5.63;2.38;;;;;;;23.43;40.70;97219.13;5047098;28;20163;-65
2022/08/22 09:48:29;;;;;;;7.35;3.00;;;;;;;23.57;40.88;97226.28;5053029;28;20551;-65
2022/08/22 09:51:17;;;;;;;9.05;3.45;;;;;;;23.65;39.95;97217.09;5046100;28;20107;-65
2022/08/22 09:54:06;;;;;;;5.10;2.50;;;;;;;23.70;40.19;97222.41;5050185;28;20090;-64
2022/08/22 09:56:41;;;;;;;5.15;2.35;;;;;;;23.82;39.44;97224.41;5045781;28;20485;-65
2022/08/22 09:59:19;;;;;;;6.63;2.40;;;;;;;23.69;39.35;97218.03;5056327;28;20050;-64
2022/08/22 10:01:57;;;;;;;4.97;2.67;;;;;;;23.77;39.07;97219.88;5046076;28;20037;-64
2022/08/22 10:04:42;;;;;;;4.88;2.40;;;;;;;23.88;39.66;97220.25;5054609;28;20055;-65
2022/08/22 10:07:14;;;;;;;5.03;2.90;;;;;;;24.03;39.27;97216.00;5042239;28;20549;-65
2022/08/22 10:10:00;;;;;;;7.00;2.83;;;;;;;23.98;39.32;97224.50;5046325;28;20045;-64
2022/08/22 10:12:32;;;;;;;4.95;2.88;;;;;;;24.04;39.27;97214.03;5045728;28;20443;-64
2022/08/22 10:15:10;;;;;;;5.40;2.60;;;;;;;24.12;39.46;97212.34;5054596;28;20044;-64
2022/08/22 10:17:47;;;;;;;6.18;3.00;;;;;;;24.08;38.42;97208.63;5045556;28;20051;-64
2022/08/22 10:20:27;;;;;;;9.00;2.60;;;;;;;24.07;38.34;97202.28;5055286;28;20552;-64
2022/08/22 10:23:43;;;;;;;6.30;2.67;;;;;;;24.33;38.70;97209.47;5046080;28;20045;-63
2022/08/22 10:26:14;;;;;;;5.07;2.60;;;;;;;24.60;37.25;97206.28;4994224;28;20588;-64
2022/08/22 10:29:03;;;;;;;4.93;2.58;;;;;;;24.61;38.06;97194.88;5045634;28;20216;-64
2022/08/22 10:31:37;;;;;;;5.45;2.70;;;;;;;24.64;37.85;97198.91;5051499;28;20059;-63
2022/08/22 10:34:35;;;;;;;6.50;3.10;;;;;;;24.72;38.02;97197.94;5045827;28;20076;-64
2022/08/22 10:37:43;;;;;;;5.68;2.97;;;;;;;24.58;37.95;97192.00;5045578;28;20110;-64
2022/08/22 10:40:21;;;;;;;5.82;2.88;;;;;;;24.61;37.41;97189.34;5054840;28;20048;-64
2022/08/22 10:42:58;;;;;;;7.05;3.00;;;;;;;24.63;37.68;97181.50;5040750;28;20041;-64
2022/08/22 10:45:32;;;;;;;6.00;2.90;;;;;;;24.67;37.82;97190.72;5048795;28;20087;-65
2022/08/22 10:48:05;;;;;;;5.25;2.58;;;;;;;24.74;36.71;97187.34;5052332;28;20110;-64
2022/08/22 10:50:49;;;;;;;4.97;2.50;;;;;;;24.77;36.79;97185.84;5045202;28;20128;-64
2022/08/22 10:53:34;;;;;;;7.90;2.70;;;;;;;24.94;37.05;97184.75;5047009;28;20052;-65
2022/08/22 10:56:19;;;;;;;5.85;2.47;;;;;;;25.18;35.68;97177.50;5045207;28;20268;-64
2022/08/22 10:59:03;;;;;;;5.30;2.63;;;;;;;25.25;35.07;97169.41;5044909;28;20041;-65
2022/08/22 11:01:36;;;;;;;4.85;2.45;;;;;;;25.15;35.02;97179.03;5043940;28;20138;-64
2022/08/22 11:04:54;;;;;;;5.38;2.63;;;;;;;25.19;34.56;97179.13;5054517;28;20049;-65
2022/08/22 11:07:45;;;;;;;3.78;2.10;;;;;;;25.22;34.80;97172.06;5046275;28;20049;-65
2022/08/22 11:10:41;;;;;;;5.43;2.50;;;;;;;25.32;34.71;97177.88;5044802;28;20519;-64
2022/08/22 11:13:25;;;;;;;6.05;2.28;;;;;;;25.65;33.77;97166.88;5038028;28;20507;-65
2022/08/22 11:16:03;;;;;;;5.63;2.50;;;;;;;25.42;33.49;97165.47;5055481;28;20036;-64
2022/08/22 11:18:33;;;;;;;5.45;2.30;;;;;;;25.63;32.43;97167.22;5050238;28;20516;-65
2022/08/22 11:21:27;;;;;;;5.10;2.35;;;;;;;25.37;32.93;97168.53;5048624;28;20068;-64
2022/08/22 11:24:26;;;;;;;6.40;2.33;;;;;;;25.42;32.78;97172.97;5048954;28;20040;-65
2022/08/22 11:27:27;;;;;;;5.57;2.50;;;;;;;25.72;32.30;97167.03;5042548;28;20053;-64
2022/08/22 11:30:22;;;;;;;5.18;2.38;;;;;;;26.03;32.13;97159.88;5043021;28;20048;-65
2022/08/22 11:32:57;;;;;;;5.75;2.47;;;;;;;26.11;32.27;97158.06;5045122;28;20048;-64
2022/08/22 11:35:35;;;;;;;5.97;2.28;;;;;;;26.16;33.40;97154.22;5052963;28;20047;-65
2022/08/22 11:38:17;;;;;;;5.40;2.35;;;;;;;26.30;32.39;97153.75;5045973;28;20116;-64
2022/08/22 11:40:58;;;;;;;4.90;2.50;;;;;;;26.33;31.54;97151.06;5051633;28;20044;-64
2022/08/22 11:43:34;;;;;;;6.03;2.40;;;;;;;26.73;31.30;97140.81;5045150;28;20049;-64
2022/08/22 11:46:24;;;;;;;6.93;2.30;;;;;;;26.90;31.09;97141.50;5057641;28;20435;-63
2022/08/22 11:49:15;;;;;;;8.05;2.55;;;;;;;26.89;30.49;97139.91;5045173;28;20044;-63
2022/08/22 11:51:59;;;;;;;9.52;2.58;;;;;;;27.06;31.11;97140.66;5047031;28;20127;-64
2022/08/22 11:55:07;;;;;;;4.25;2.05;;;;;;;27.11;31.00;97135.63;5046210;28;20474;-63
2022/08/22 11:57:39;;;;;;;5.43;2.60;;;;;;;27.11;30.73;97132.03;5050579;28;20515;-64
2022/08/22 12:00:28;;;;;;;5.43;2.75;;;;;;;26.75;31.25;97141.25;5043725;28;20062;-63
2022/08/22 12:03:33;;;;;;;4.43;2.38;;;;;;;27.01;31.00;97139.78;5038107;28;20041;-64
2022/08/22 12:06:19;;;;;;;5.38;2.30;;;;;;;27.13;30.44;97132.47;5055616;28;20140;-64
2022/08/22 12:08:48;;;;;;;6.43;2.15;;;;;;;27.05;30.56;97136.28;5048043;28;20076;-64
2022/08/22 12:11:17;;;;;;;4.22;2.10;;;;;;;26.85;30.45;97131.53;5044855;28;20630;-64
2022/08/22 12:13:55;;;;;;;4.38;2.30;;;;;;;26.54;29.81;97136.06;5063419;28;20052;-64
2022/08/22 12:16:38;;;;;;;4.40;2.03;;;;;;;26.63;29.97;97127.50;5051399;28;20036;-63
2022/08/22 12:19:42;;;;;;;5.05;2.17;;;;;;;26.73;29.51;97131.66;5054000;28;20045;-64
2022/08/22 12:22:54;;;;;;;4.60;1.90;;;;;;;26.38;30.18;97133.31;5031937;28;20049;-64
2022/08/22 12:25:34;;;;;;;4.13;2.22;;;;;;;26.07;31.39;97130.25;5045464;28;20057;-64
2022/08/22 12:28:27;;;;;;;6.05;2.70;;;;;;;26.27;31.28;97127.53;5043529;28;20053;-64
2022/08/22 12:31:27;;;;;;;5.78;2.47;;;;;;;26.51;31.40;97120.13;5033811;28;20056;-64
2022/08/22 12:34:01;;;;;;;5.47;2.40;;;;;;;26.73;31.06;97118.59;5032291;28;20037;-64
2022/08/22 12:36:34;;;;;;;5.60;2.30;;;;;;;27.21;30.46;97111.16;5047524;28;20403;-63
2022/08/22 12:39:22;;;;;;;5.15;2.40;;;;;;;27.32;30.53;97114.94;5044001;28;20060;-63
2022/08/22 12:41:49;;;;;;;5.63;2.03;;;;;;;27.05;30.63;97108.50;5042381;28;20053;-64
2022/08/22 12:44:34;;;;;;;5.13;2.58;;;;;;;27.27;30.15;97113.25;5045402;28;20516;-64
2022/08/22 12:47:23;;;;;;;4.82;2.20;;;;;;;27.46;29.79;97108.81;5043467;28;20052;-63
2022/08/22 12:49:59;;;;;;;4.22;2.17;;;;;;;27.44;29.38;97107.59;5035105;28;20146;-63